Time;durP1;ratioP1;P1;durP2;ratioP2;P2;SDS_P1;SDS_P2;PMS_P1;PMS_P2;Temp;Humidity;BMP_temperature;BMP_pressure;BME280_temperature;BME280_humidity;BME280_pressure;Samples;Min_cycle;Max_cycle;Signal;HPM_P1;HPM_P2
2022/08/09 00:00:34;;;;;;;6.27;2.07;;;22.90;49.50;;;;;;5134903;27;20946;-71
2022/08/09 00:03:01;;;;;;;3.57;2.27;;;22.90;49.70;;;;;;5134835;27;20981;-71
2022/08/09 00:05:27;;;;;;;3.80;2.23;;;22.80;49.80;;;;;;5135716;27;20482;-71
2022/08/09 00:07:54;;;;;;;2.70;1.90;;;22.80;50.00;;;;;;5136088;27;20427;-71
2022/08/09 00:10:22;;;;;;;2.87;2.40;;;22.80;50.00;;;;;;5135681;27;20448;-70
2022/08/09 00:12:49;;;;;;;2.60;2.10;;;22.80;50.20;;;;;;5134960;27;20458;-70
2022/08/09 00:15:16;;;;;;;3.90;2.50;;;22.80;50.20;;;;;;5134543;27;20970;-70
2022/08/09 00:17:43;;;;;;;5.40;2.33;;;22.80;50.40;;;;;;5134592;27;20473;-71
2022/08/09 00:20:11;;;;;;;3.10;2.23;;;22.70;50.50;;;;;;5134537;27;20446;-71
2022/08/09 00:22:37;;;;;;;5.67;2.57;;;22.70;50.50;;;;;;5134768;27;20803;-71
2022/08/09 00:25:05;;;;;;;4.70;2.40;;;22.70;50.60;;;;;;5134277;27;20996;-71
2022/08/09 00:27:33;;;;;;;5.00;2.17;;;22.70;50.80;;;;;;5134438;27;20949;-71
2022/08/09 00:30:00;;;;;;;2.57;2.37;;;22.60;50.90;;;;;;5134343;27;20450;-71
2022/08/09 00:32:27;;;;;;;3.30;2.20;;;22.60;51.00;;;;;;5134764;27;20442;-71
2022/08/09 00:34:54;;;;;;;2.33;2.10;;;22.50;51.00;;;;;;5134565;27;20473;-71
2022/08/09 00:37:21;;;;;;;8.50;2.10;;;22.50;51.20;;;;;;5134522;27;20446;-71
2022/08/09 00:39:48;;;;;;;4.03;2.73;;;22.50;51.40;;;;;;5134503;27;20438;-71
2022/08/09 00:42:15;;;;;;;3.93;2.47;;;22.40;51.40;;;;;;5134597;28;20442;-71
2022/08/09 00:44:43;;;;;;;2.63;2.20;;;22.40;51.50;;;;;;5134363;28;20473;-71
2022/08/09 00:47:10;;;;;;;6.20;2.30;;;22.40;51.70;;;;;;5134493;28;20446;-71
2022/08/09 00:49:36;;;;;;;4.87;2.63;;;22.30;51.80;;;;;;5134494;28;20473;-71
2022/08/09 00:52:05;;;;;;;2.57;2.10;;;22.30;51.90;;;;;;5134181;28;20942;-71
2022/08/09 00:54:32;;;;;;;4.10;2.30;;;22.30;52.10;;;;;;5134168;28;20480;-71
2022/08/09 00:56:58;;;;;;;7.07;2.80;;;22.20;52.10;;;;;;5134438;28;20446;-71
2022/08/09 00:59:25;;;;;;;3.00;2.20;;;22.20;52.20;;;;;;5134119;28;20812;-71
2022/08/09 01:01:54;;;;;;;3.83;2.40;;;22.20;52.50;;;;;;5134464;28;20961;-71
2022/08/09 01:04:29;;;;;;;4.90;2.90;;;22.10;52.50;;;;;;5134390;28;20491;-71
2022/08/09 01:07:06;;;;;;;3.10;2.77;;;22.10;52.60;;;;;;5134272;28;20899;-71
2022/08/09 01:09:38;;;;;;;5.03;2.67;;;22.10;52.90;;;;;;5137669;27;20422;-71
2022/08/09 01:12:12;;;;;;;5.90;2.50;;;22.00;52.90;;;;;;5139057;27;20422;-71
2022/08/09 01:14:45;;;;;;;4.00;2.60;;;22.00;53.10;;;;;;5139215;27;20469;-71
2022/08/09 01:17:19;;;;;;;4.03;2.20;;;21.90;53.20;;;;;;5139657;27;20461;-71
2022/08/09 01:19:54;;;;;;;4.60;2.67;;;21.80;53.30;;;;;;5139469;27;20483;-71
2022/08/09 01:22:51;;;;;;;6.30;2.70;;;21.80;53.30;;;;;;5139975;27;20429;-71
2022/08/09 01:25:26;;;;;;;3.40;2.90;;;21.70;53.50;;;;;;5141094;27;20497;-71
2022/08/09 01:27:55;;;;;;;4.17;2.60;;;21.70;53.60;;;;;;5138753;27;20426;-71
2022/08/09 01:30:25;;;;;;;3.90;2.80;;;21.70;53.70;;;;;;5138052;27;20442;-71
2022/08/09 01:32:54;;;;;;;3.23;2.40;;;21.60;53.80;;;;;;5138064;27;20511;-71
2022/08/09 01:35:23;;;;;;;3.60;2.50;;;21.60;54.00;;;;;;5137926;27;20473;-71
2022/08/09 01:37:53;;;;;;;2.60;2.40;;;21.60;54.10;;;;;;5137925;27;20442;-71
2022/08/09 01:40:20;;;;;;;4.80;2.47;;;21.60;54.30;;;;;;5137919;27;20438;-71
2022/08/09 01:42:48;;;;;;;5.50;2.77;;;21.60;54.40;;;;;;5137857;27;20441;-71
2022/08/09 01:45:18;;;;;;;3.37;2.40;;;21.50;54.50;;;;;;5137602;27;20485;-71
2022/08/09 01:47:46;;;;;;;3.00;2.50;;;21.50;54.50;;;;;;5137403;27;20938;-71
2022/08/09 01:50:14;;;;;;;2.77;2.57;;;21.40;54.50;;;;;;5137698;27;20453;-71
2022/08/09 01:52:42;;;;;;;6.03;2.70;;;21.40;54.80;;;;;;5137623;27;20475;-71
2022/08/09 01:55:10;;;;;;;2.93;2.30;;;21.30;54.90;;;;;;5137253;27;20981;-71
2022/08/09 01:57:42;;;;;;;5.63;2.73;;;21.30;55.20;;;;;;5137591;27;20804;-71
2022/08/09 02:00:10;;;;;;;3.53;2.30;;;21.30;55.40;;;;;;5137297;27;20442;-71
2022/08/09 02:02:43;;;;;;;3.20;2.07;;;21.20;55.40;;;;;;5137457;27;20533;-71
2022/08/09 02:05:12;;;;;;;10.00;2.80;;;21.20;55.50;;;;;;5136996;27;20484;-71
2022/08/09 02:07:46;;;;;;;4.87;2.73;;;21.20;55.60;;;;;;5137008;27;20487;-71
2022/08/09 02:10:17;;;;;;;2.63;2.40;;;21.20;55.70;;;;;;5137288;27;20518;-71
2022/08/09 02:12:45;;;;;;;2.97;2.60;;;21.10;55.80;;;;;;5136999;27;20513;-71
2022/08/09 02:15:14;;;;;;;3.97;2.43;;;21.10;56.00;;;;;;5137114;27;20465;-71
2022/08/09 02:17:44;;;;;;;3.40;2.80;;;21.10;56.20;;;;;;5136893;27;20460;-71
2022/08/09 02:20:12;;;;;;;3.07;2.43;;;21.00;56.20;;;;;;5136053;27;20453;-71
2022/08/09 02:22:41;;;;;;;2.87;2.57;;;21.00;56.30;;;;;;5137141;27;20827;-71
2022/08/09 02:25:11;;;;;;;2.70;2.50;;;21.00;56.50;;;;;;5136849;27;20581;-71
2022/08/09 02:27:40;;;;;;;4.37;2.93;;;21.00;56.70;;;;;;5137872;27;20450;-71
2022/08/09 02:30:09;;;;;;;2.77;2.20;;;20.90;56.70;;;;;;5137003;27;20450;-71
2022/08/09 02:32:41;;;;;;;4.70;2.80;;;20.90;56.90;;;;;;5136714;27;20820;-71
2022/08/09 02:35:16;;;;;;;3.00;2.50;;;20.90;57.10;;;;;;5137104;27;20557;-71
2022/08/09 02:37:44;;;;;;;4.20;2.47;;;20.80;57.10;;;;;;5136789;27;20866;-71
2022/08/09 02:40:16;;;;;;;2.33;2.10;;;20.80;57.20;;;;;;5137927;27;20446;-71
2022/08/09 02:42:47;;;;;;;5.27;2.27;;;20.90;57.40;;;;;;5138450;27;20434;-71
2022/08/09 02:45:16;;;;;;;3.83;3.20;;;20.80;57.40;;;;;;5137706;27;20544;-71
2022/08/09 02:47:44;;;;;;;3.23;2.03;;;20.80;57.50;;;;;;5136975;27;20448;-70
2022/08/09 02:50:16;;;;;;;3.13;2.00;;;20.90;57.70;;;;;;5136343;27;20942;-71
2022/08/09 02:52:47;;;;;;;3.60;2.40;;;20.80;57.80;;;;;;5136269;27;20907;-71
2022/08/09 02:55:16;;;;;;;3.40;2.10;;;20.80;58.10;;;;;;5136086;27;21028;-71
2022/08/09 02:57:45;;;;;;;3.20;2.20;;;20.80;58.00;;;;;;5136059;27;20939;-71
2022/08/09 03:00:13;;;;;;;3.10;1.90;;;20.80;58.00;;;;;;5136307;27;20450;-71
2022/08/09 03:02:43;;;;;;;5.07;2.43;;;20.70;58.00;;;;;;5136001;27;20810;-71
2022/08/09 03:05:11;;;;;;;4.17;2.07;;;20.70;58.60;;;;;;5136083;27;20493;-71
2022/08/09 03:07:41;;;;;;;4.50;2.60;;;20.70;58.20;;;;;;5136837;27;20499;-71
2022/08/09 03:10:10;;;;;;;3.00;1.90;;;20.70;58.30;;;;;;5136207;27;20439;-71
2022/08/09 03:12:38;;;;;;;2.97;2.53;;;20.70;58.40;;;;;;5136213;27;20442;-71
2022/08/09 03:15:07;;;;;;;3.33;2.63;;;20.70;58.40;;;;;;5136071;27;20481;-72
2022/08/09 03:17:36;;;;;;;3.83;2.03;;;20.60;58.40;;;;;;5135824;27;20457;-71
2022/08/09 03:20:04;;;;;;;2.40;2.20;;;20.60;58.60;;;;;;5135687;27;20454;-71
2022/08/09 03:22:35;;;;;;;3.13;2.30;;;20.50;58.70;;;;;;5135671;27;20931;-71
2022/08/09 03:25:04;;;;;;;4.77;2.43;;;20.50;58.80;;;;;;5135825;27;20462;-71
2022/08/09 03:27:32;;;;;;;2.60;2.23;;;20.50;58.90;;;;;;5135405;27;20980;-71
2022/08/09 03:29:59;;;;;;;3.30;2.23;;;20.50;58.90;;;;;;5135824;27;20631;-71
2022/08/09 03:32:28;;;;;;;2.40;2.17;;;20.40;58.90;;;;;;5135702;27;20453;-71
2022/08/09 03:34:56;;;;;;;2.63;2.43;;;20.40;59.10;;;;;;5135289;27;20837;-71
2022/08/09 03:37:22;;;;;;;5.30;2.70;;;20.30;59.10;;;;;;5135631;27;20466;-71
2022/08/09 03:39:49;;;;;;;7.73;2.70;;;20.30;59.30;;;;;;5135480;27;20448;-71
2022/08/09 03:42:17;;;;;;;2.60;2.40;;;20.20;59.50;;;;;;5135186;27;20961;-71
2022/08/09 03:44:44;;;;;;;2.63;2.43;;;20.20;59.50;;;;;;5135071;27;21008;-71
2022/08/09 03:47:11;;;;;;;4.27;2.17;;;20.20;59.60;;;;;;5134932;27;21016;-71
2022/08/09 03:49:40;;;;;;;2.87;2.60;;;20.10;59.70;;;;;;5135280;27;20478;-71
2022/08/09 03:52:07;;;;;;;2.60;2.40;;;20.10;59.80;;;;;;5135078;27;20957;-71
2022/08/09 03:54:38;;;;;;;2.63;2.40;;;20.00;59.90;;;;;;5135166;27;20473;-71
2022/08/09 03:57:07;;;;;;;2.90;2.47;;;20.00;60.00;;;;;;5135274;27;20445;-71
2022/08/09 03:59:35;;;;;;;3.97;2.50;;;20.00;60.20;;;;;;5135174;27;20444;-71
2022/08/09 04:02:04;;;;;;;5.50;2.87;;;20.00;60.40;;;;;;5135193;27;20446;-71
2022/08/09 04:04:32;;;;;;;2.57;2.27;;;20.00;60.50;;;;;;5135100;27;20493;-71
2022/08/09 04:06:59;;;;;;;3.20;2.23;;;20.00;60.70;;;;;;5134746;27;20986;-71
2022/08/09 04:09:26;;;;;;;3.80;2.40;;;20.00;60.60;;;;;;5135247;27;20446;-71
2022/08/09 04:12:07;;;;;;;3.10;2.40;;;19.90;60.60;;;;;;5135211;27;20622;-71
2022/08/09 04:14:35;;;;;;;4.20;2.50;;;19.90;60.90;;;;;;5134984;27;20523;-71
2022/08/09 04:17:01;;;;;;;2.60;2.40;;;19.90;61.00;;;;;;5134927;27;20456;-72
2022/08/09 04:19:28;;;;;;;3.63;2.40;;;19.80;61.00;;;;;;5135174;27;20470;-71
2022/08/09 04:21:55;;;;;;;3.70;2.70;;;19.80;61.10;;;;;;5135090;27;20957;-71
2022/08/09 04:24:24;;;;;;;3.40;2.80;;;19.80;61.50;;;;;;5135330;27;20473;-71
2022/08/09 04:26:50;;;;;;;5.77;2.53;;;19.70;61.70;;;;;;5136033;27;21009;-71
2022/08/09 04:29:17;;;;;;;4.33;3.10;;;19.70;62.00;;;;;;5136294;27;20934;-71
2022/08/09 04:31:46;;;;;;;8.03;2.67;;;19.70;62.50;;;;;;5136188;27;20927;-71
2022/08/09 04:34:13;;;;;;;4.47;3.10;;;19.70;62.50;;;;;;5135303;27;20982;-72
2022/08/09 04:36:40;;;;;;;3.10;2.63;;;19.70;62.60;;;;;;5135962;27;20471;-71
2022/08/09 04:39:08;;;;;;;4.13;3.17;;;19.70;62.90;;;;;;5134268;27;20923;-70
2022/08/09 04:41:35;;;;;;;4.87;2.70;;;19.70;63.00;;;;;;5134675;28;20834;-70
2022/08/09 04:44:03;;;;;;;2.70;2.50;;;19.70;63.20;;;;;;5134096;27;20458;-70
2022/08/09 04:46:30;;;;;;;3.40;2.47;;;19.60;63.40;;;;;;5134541;28;20492;-70
2022/08/09 04:48:58;;;;;;;3.77;2.77;;;19.60;63.30;;;;;;5134547;28;20454;-70
2022/08/09 04:51:25;;;;;;;3.20;2.60;;;19.70;63.60;;;;;;5134632;28;20447;-70
2022/08/09 04:53:51;;;;;;;3.77;2.50;;;19.60;63.50;;;;;;5134634;28;20472;-71
2022/08/09 04:56:18;;;;;;;3.03;2.60;;;19.70;63.80;;;;;;5134077;28;20802;-70
2022/08/09 04:58:45;;;;;;;3.77;2.57;;;19.70;64.00;;;;;;5134469;28;20434;-70
2022/08/09 05:01:11;;;;;;;4.63;3.20;;;19.70;64.10;;;;;;5134391;28;20468;-70
2022/08/09 05:03:38;;;;;;;3.10;2.70;;;19.70;64.20;;;;;;5134127;28;20971;-70
2022/08/09 05:06:06;;;;;;;4.33;3.00;;;19.70;64.70;;;;;;5134525;28;20490;-70
2022/08/09 05:08:34;;;;;;;3.27;2.60;;;19.70;65.10;;;;;;5134004;28;20820;-70
2022/08/09 05:11:01;;;;;;;5.80;2.90;;;19.70;65.40;;;;;;5134219;28;20930;-70
2022/08/09 05:13:28;;;;;;;3.13;2.40;;;19.70;65.60;;;;;;5134048;28;20795;-71
2022/08/09 05:15:54;;;;;;;4.47;2.97;;;19.70;65.90;;;;;;5134239;28;20427;-70
2022/08/09 05:18:21;;;;;;;4.10;3.30;;;19.80;66.30;;;;;;5134877;28;20461;-70
2022/08/09 05:20:48;;;;;;;2.70;2.40;;;19.80;66.50;;;;;;5134413;28;20450;-71
2022/08/09 05:23:16;;;;;;;3.73;2.87;;;19.80;66.70;;;;;;5134555;28;20776;-71
2022/08/09 05:25:43;;;;;;;5.60;2.97;;;19.80;67.10;;;;;;5133790;28;20923;-70
2022/08/09 05:28:10;;;;;;;3.17;2.87;;;19.90;67.60;;;;;;5133764;28;20445;-70
2022/08/09 05:30:36;;;;;;;3.70;3.40;;;19.90;68.00;;;;;;5134205;28;20457;-70
2022/08/09 05:33:03;;;;;;;4.20;3.03;;;19.90;68.20;;;;;;5134181;28;20446;-70
2022/08/09 05:35:30;;;;;;;6.70;3.43;;;19.90;68.40;;;;;;5133986;28;20466;-70
2022/08/09 05:37:57;;;;;;;4.03;3.17;;;19.90;68.80;;;;;;5134032;28;20444;-70
2022/08/09 05:40:27;;;;;;;4.37;3.00;;;20.00;69.30;;;;;;5133734;28;20931;-70
2022/08/09 05:42:54;;;;;;;5.63;4.03;;;20.00;69.70;;;;;;5134141;28;20510;-70
2022/08/09 05:45:21;;;;;;;6.40;3.53;;;20.00;70.00;;;;;;5133968;28;20462;-70
2022/08/09 05:47:47;;;;;;;4.70;3.37;;;20.10;70.40;;;;;;5133925;28;20473;-70
2022/08/09 05:50:14;;;;;;;2.90;2.70;;;20.10;70.60;;;;;;5134019;28;20517;-70
2022/08/09 05:52:43;;;;;;;3.80;2.60;;;20.20;70.80;;;;;;5133924;28;20448;-70
2022/08/09 05:55:11;;;;;;;3.80;2.70;;;20.30;70.90;;;;;;5134762;27;20466;-70
2022/08/09 05:57:39;;;;;;;3.97;3.53;;;20.30;70.40;;;;;;5137655;27;20438;-70
2022/08/09 06:00:07;;;;;;;3.93;2.70;;;20.40;70.60;;;;;;5137515;27;20450;-70
2022/08/09 06:02:34;;;;;;;3.23;2.93;;;20.50;70.20;;;;;;5137209;27;20995;-70
2022/08/09 06:05:01;;;;;;;2.83;2.63;;;20.50;70.10;;;;;;5137366;27;20458;-70
2022/08/09 06:07:29;;;;;;;4.43;2.80;;;20.60;69.20;;;;;;5137454;27;20527;-70
2022/08/09 06:09:56;;;;;;;4.73;4.03;;;20.70;68.80;;;;;;5137070;27;21023;-70
2022/08/09 06:12:23;;;;;;;3.13;2.83;;;20.70;69.20;;;;;;5137298;27;20465;-70
2022/08/09 06:14:51;;;;;;;2.97;2.53;;;20.80;69.40;;;;;;5137235;27;20513;-70
2022/08/09 06:17:18;;;;;;;5.23;4.67;;;20.90;69.50;;;;;;5137001;27;20450;-70
2022/08/09 06:19:45;;;;;;;8.07;3.73;;;20.90;69.20;;;;;;5137196;27;20422;-70
2022/08/09 06:22:11;;;;;;;4.70;3.17;;;21.00;69.00;;;;;;5136771;27;20499;-70
2022/08/09 06:24:38;;;;;;;3.00;2.70;;;21.10;68.00;;;;;;5137083;27;20863;-70
2022/08/09 06:27:05;;;;;;;5.10;2.93;;;21.10;68.10;;;;;;5136647;27;20868;-70
2022/08/09 06:29:32;;;;;;;3.40;3.10;;;21.20;66.90;;;;;;5137154;27;20426;-70
2022/08/09 06:32:00;;;;;;;4.63;2.70;;;21.30;67.30;;;;;;5136704;27;20946;-70
2022/08/09 06:34:27;;;;;;;4.00;3.37;;;21.40;67.00;;;;;;5136877;27;20462;-70
2022/08/09 06:36:53;;;;;;;6.87;2.97;;;21.50;67.10;;;;;;5136984;27;20446;-70
2022/08/09 06:39:20;;;;;;;4.73;3.07;;;21.60;66.90;;;;;;5136808;27;20449;-70
2022/08/09 06:41:47;;;;;;;4.03;3.07;;;21.70;66.50;;;;;;5136731;27;20438;-70
2022/08/09 06:44:14;;;;;;;3.87;2.73;;;21.80;65.80;;;;;;5136268;27;20549;-71
2022/08/09 06:46:40;;;;;;;8.13;3.40;;;21.80;65.50;;;;;;5136676;27;20466;-70
2022/08/09 06:49:09;;;;;;;4.30;2.93;;;22.00;64.70;;;;;;5136303;27;20932;-70
2022/08/09 06:51:37;;;;;;;4.10;3.13;;;22.10;65.00;;;;;;5136577;27;20433;-70
2022/08/09 06:54:04;;;;;;;6.83;2.73;;;22.10;64.40;;;;;;5136352;27;20826;-70
2022/08/09 06:56:30;;;;;;;5.17;2.90;;;22.30;64.10;;;;;;5136520;27;20446;-70
2022/08/09 06:58:57;;;;;;;3.23;2.93;;;22.40;63.10;;;;;;5136338;27;20491;-70
2022/08/09 07:01:26;;;;;;;3.10;2.70;;;22.50;62.30;;;;;;5136430;27;20476;-70
2022/08/09 07:03:53;;;;;;;3.17;2.87;;;22.70;61.60;;;;;;5136225;27;20545;-70
2022/08/09 07:06:21;;;;;;;5.20;2.77;;;22.80;61.50;;;;;;5135744;27;20445;-70
2022/08/09 07:08:48;;;;;;;4.33;2.80;;;22.90;61.30;;;;;;5135914;27;20945;-70
2022/08/09 07:11:14;;;;;;;4.20;3.20;;;23.10;61.00;;;;;;5135913;27;20946;-70
2022/08/09 07:13:41;;;;;;;4.20;2.30;;;23.20;60.70;;;;;;5135779;27;20840;-70
2022/08/09 07:16:08;;;;;;;7.17;3.40;;;23.40;59.90;;;;;;5136086;27;20426;-70
2022/08/09 07:18:35;;;;;;;3.10;2.67;;;23.50;59.40;;;;;;5135798;27;20450;-70
2022/08/09 07:21:02;;;;;;;2.57;2.37;;;23.60;59.00;;;;;;5136096;27;20430;-70
2022/08/09 07:23:30;;;;;;;4.10;2.53;;;23.80;58.10;;;;;;5135939;27;20442;-71
2022/08/09 07:25:59;;;;;;;5.97;2.63;;;23.90;57.50;;;;;;5135960;27;20442;-70
2022/08/09 07:28:27;;;;;;;4.03;2.90;;;24.10;57.00;;;;;;5136281;27;20493;-70
2022/08/09 07:30:54;;;;;;;4.73;2.57;;;24.30;56.90;;;;;;5135942;27;20443;-70
2022/08/09 07:33:21;;;;;;;3.50;2.43;;;24.40;56.50;;;;;;5136051;27;20426;-71
2022/08/09 07:35:48;;;;;;;5.00;3.03;;;24.50;56.00;;;;;;5136388;27;20446;-70
2022/08/09 07:38:14;;;;;;;5.83;2.43;;;24.70;55.90;;;;;;5136409;27;20427;-70
2022/08/09 07:40:42;;;;;;;3.30;2.30;;;24.90;55.10;;;;;;5136462;27;20426;-71
2022/08/09 07:43:09;;;;;;;2.97;2.67;;;25.10;54.70;;;;;;5136568;27;20449;-70
2022/08/09 07:45:36;;;;;;;4.83;2.47;;;25.20;54.20;;;;;;5136202;27;20470;-70
2022/08/09 07:48:03;;;;;;;9.30;3.40;;;25.40;53.60;;;;;;5136786;27;20478;-71
2022/08/09 07:50:30;;;;;;;5.03;2.70;;;25.60;52.80;;;;;;5137043;27;20540;-71
2022/08/09 07:52:57;;;;;;;6.83;2.50;;;25.70;52.20;;;;;;5136828;27;20957;-71
2022/08/09 07:55:24;;;;;;;2.40;2.20;;;25.90;52.20;;;;;;5135615;27;20833;-71
2022/08/09 07:57:52;;;;;;;2.43;1.90;;;26.10;51.30;;;;;;5135387;27;20810;-71
2022/08/09 08:00:20;;;;;;;2.80;2.50;;;26.30;50.50;;;;;;5135263;27;20454;-71
2022/08/09 08:02:47;;;;;;;2.93;1.93;;;26.50;50.50;;;;;;5135141;27;20438;-71
2022/08/09 08:05:14;;;;;;;3.20;2.30;;;26.70;50.20;;;;;;5135131;27;20458;-71
2022/08/09 08:07:41;;;;;;;6.07;2.47;;;26.90;49.60;;;;;;5135080;27;20482;-71
2022/08/09 08:10:09;;;;;;;4.73;2.73;;;27.10;48.40;;;;;;5134790;27;20957;-71
2022/08/09 08:12:37;;;;;;;4.10;2.80;;;27.30;48.00;;;;;;5134640;27;20791;-71
2022/08/09 08:15:06;;;;;;;3.10;2.40;;;27.50;48.50;;;;;;5134878;27;20503;-71
2022/08/09 08:17:33;;;;;;;6.63;2.50;;;27.60;46.90;;;;;;5133788;27;20950;-71
2022/08/09 08:19:59;;;;;;;3.87;2.67;;;27.80;46.90;;;;;;5134611;27;20941;-71
2022/08/09 08:22:27;;;;;;;2.80;1.87;;;27.90;46.60;;;;;;5134835;27;20446;-71
2022/08/09 08:24:55;;;;;;;3.80;2.43;;;28.10;46.00;;;;;;5134892;27;20826;-71
2022/08/09 08:27:22;;;;;;;2.30;2.10;;;28.30;45.50;;;;;;5134700;27;20477;-71
2022/08/09 08:29:49;;;;;;;3.73;2.57;;;28.50;44.90;;;;;;5134804;27;20499;-71
2022/08/09 08:32:18;;;;;;;2.80;2.50;;;28.60;44.70;;;;;;5134823;27;20519;-71
2022/08/09 08:34:45;;;;;;;2.60;2.40;;;28.70;43.70;;;;;;5134711;27;20466;-71
2022/08/09 08:37:12;;;;;;;4.17;2.67;;;28.90;43.20;;;;;;5134460;27;20478;-71
2022/08/09 08:39:39;;;;;;;9.90;3.20;;;29.00;43.00;;;;;;5134608;27;20452;-71
2022/08/09 08:42:07;;;;;;;2.33;2.13;;;29.20;43.10;;;;;;5134627;27;20443;-71
2022/08/09 08:44:35;;;;;;;2.53;2.07;;;29.30;42.80;;;;;;5134694;28;20473;-71
2022/08/09 08:47:03;;;;;;;2.10;2.00;;;29.50;42.20;;;;;;5134478;28;20501;-71
2022/08/09 08:49:33;;;;;;;3.10;2.20;;;29.60;42.10;;;;;;5134518;28;20442;-71
2022/08/09 08:51:59;;;;;;;4.23;2.27;;;29.80;41.60;;;;;;5134563;28;20438;-71
2022/08/09 08:54:26;;;;;;;2.17;1.97;;;30.00;40.70;;;;;;5134370;28;20462;-71
2022/08/09 08:56:54;;;;;;;3.30;2.40;;;30.10;40.10;;;;;;5134398;28;20442;-71
2022/08/09 08:59:21;;;;;;;3.60;2.47;;;30.30;40.40;;;;;;5134134;28;20453;-71
2022/08/09 09:01:50;;;;;;;1.87;1.77;;;30.50;40.00;;;;;;5134419;28;20452;-71
2022/08/09 09:04:19;;;;;;;5.13;2.07;;;30.70;39.90;;;;;;5134051;28;20860;-71
2022/08/09 09:06:49;;;;;;;2.70;2.50;;;30.80;38.90;;;;;;5134412;28;20426;-71
2022/08/09 09:09:17;;;;;;;9.00;2.67;;;31.00;38.50;;;;;;5134385;28;20470;-71
2022/08/09 09:11:44;;;;;;;2.50;2.27;;;31.20;38.00;;;;;;5134033;28;20819;-71
2022/08/09 09:14:15;;;;;;;4.07;2.00;;;31.30;37.40;;;;;;5134050;28;20830;-71
2022/08/09 09:16:42;;;;;;;7.23;2.50;;;31.40;37.00;;;;;;5134157;28;20430;-71
2022/08/09 09:19:10;;;;;;;6.27;2.50;;;31.60;37.20;;;;;;5134238;28;20442;-71
2022/08/09 09:21:37;;;;;;;3.00;2.67;;;31.70;37.00;;;;;;5134194;28;20438;-71
2022/08/09 09:24:07;;;;;;;3.13;2.80;;;31.90;36.30;;;;;;5134024;28;20465;-71
2022/08/09 09:26:34;;;;;;;3.47;2.30;;;32.00;35.70;;;;;;5133995;28;20453;-71
2022/08/09 09:29:03;;;;;;;3.83;2.70;;;32.20;35.80;;;;;;5134816;27;20506;-71
2022/08/09 09:31:30;;;;;;;2.60;2.23;;;32.30;35.20;;;;;;5138178;27;20426;-71
2022/08/09 09:34:11;;;;;;;3.93;2.63;;;32.50;34.80;;;;;;5137949;27;20468;-71
2022/08/09 09:36:39;;;;;;;3.50;2.57;;;32.60;34.20;;;;;;5138047;27;20465;-71
2022/08/09 09:39:10;;;;;;;3.00;2.70;;;32.70;34.00;;;;;;5137971;27;20450;-71
2022/08/09 09:41:37;;;;;;;8.53;2.47;;;32.90;34.30;;;;;;5138152;27;20430;-71
2022/08/09 09:44:05;;;;;;;6.67;2.83;;;33.10;33.70;;;;;;5137875;27;20461;-71
2022/08/09 09:46:36;;;;;;;3.87;2.90;;;33.20;33.20;;;;;;5137903;27;20441;-71
2022/08/09 09:49:04;;;;;;;2.70;2.50;;;33.40;33.20;;;;;;5137789;27;20465;-71
2022/08/09 09:51:32;;;;;;;8.20;3.00;;;33.60;32.60;;;;;;5137811;27;20813;-71
2022/08/09 09:54:11;;;;;;;3.20;2.90;;;33.80;32.00;;;;;;5137788;27;20462;-71
2022/08/09 09:56:39;;;;;;;3.00;2.80;;;33.90;31.70;;;;;;5137745;27;20780;-71
2022/08/09 09:59:06;;;;;;;4.83;3.00;;;34.10;31.90;;;;;;5137614;27;20466;-72
2022/08/09 10:01:33;;;;;;;6.67;2.30;;;34.30;31.20;;;;;;5137590;27;20445;-71
2022/08/09 10:04:00;;;;;;;3.57;2.70;;;34.40;30.80;;;;;;5137778;27;20465;-71
2022/08/09 10:06:28;;;;;;;3.60;2.40;;;34.70;30.50;;;;;;5137090;27;20445;-71
2022/08/09 10:09:00;;;;;;;5.70;3.10;;;35.00;30.00;;;;;;5137017;27;20989;-71
2022/08/09 10:11:30;;;;;;;3.30;3.00;;;35.20;29.20;;;;;;5137081;27;20811;-71
2022/08/09 10:13:57;;;;;;;5.27;2.67;;;35.50;29.10;;;;;;5137406;27;20480;-71
2022/08/09 10:16:29;;;;;;;2.90;2.70;;;35.70;28.90;;;;;;5137232;27;20442;-71
2022/08/09 10:18:57;;;;;;;4.10;2.80;;;36.00;28.50;;;;;;5136838;27;20503;-71
2022/08/09 10:21:24;;;;;;;2.73;2.37;;;36.30;27.60;;;;;;5137224;27;20438;-71
2022/08/09 10:23:52;;;;;;;3.47;2.60;;;36.60;27.20;;;;;;5136872;27;20469;-71
2022/08/09 10:26:21;;;;;;;4.23;2.87;;;36.80;26.90;;;;;;5136833;27;21002;-71
2022/08/09 10:28:49;;;;;;;4.00;3.10;;;37.10;26.60;;;;;;5137141;27;20200;-71
2022/08/09 10:31:17;;;;;;;2.50;2.30;;;37.40;26.20;;;;;;5137548;27;20196;-72
2022/08/09 10:33:44;;;;;;;3.87;3.07;;;37.70;25.90;;;;;;5137751;27;20223;-72
2022/08/09 10:36:12;;;;;;;2.80;2.50;;;38.00;25.40;;;;;;5137007;27;20180;-72
2022/08/09 10:38:40;;;;;;;3.25;2.80;;;38.30;25.00;;;;;;5136652;27;20720;-71
2022/08/09 10:41:07;;;;;;;2.65;2.20;;;38.60;24.50;;;;;;5136160;27;20207;-72
2022/08/09 10:43:35;;;;;;;7.15;3.28;;;39.00;24.20;;;;;;5136890;27;20583;-72
2022/08/09 10:46:37;;;;;;;2.42;2.22;;;39.30;23.80;;;;;;5136945;27;20184;-72
2022/08/09 10:49:11;;;;;;;2.83;2.38;;;39.80;23.20;;;;;;5136786;27;20215;-72
2022/08/09 10:51:48;;;;;;;2.50;2.30;;;40.20;22.80;;;;;;5137235;27;20195;-72
2022/08/09 10:54:15;;;;;;;3.75;2.55;;;40.70;22.00;;;;;;5137483;27;20233;-72
2022/08/09 10:56:43;;;;;;;2.92;2.40;;;41.20;21.40;;;;;;5137928;27;20203;-72
2022/08/09 10:59:30;;;;;;;2.60;2.40;;;41.60;21.10;;;;;;5137846;27;20176;-72
2022/08/09 11:01:59;;;;;;;2.97;2.25;;;42.20;20.50;;;;;;5137195;27;20202;-72
2022/08/09 11:04:27;;;;;;;9.77;2.60;;;42.60;20.30;;;;;;5136508;27;20253;-72
2022/08/09 11:07:25;;;;;;;5.32;2.88;;;43.10;19.80;;;;;;5136284;27;20204;-72
2022/08/09 11:09:52;;;;;;;2.42;1.90;;;43.40;19.10;;;;;;5136245;27;20184;-72
2022/08/09 11:12:20;;;;;;;2.30;2.10;;;43.70;19.20;;;;;;5135885;27;20210;-72
2022/08/09 11:14:50;;;;;;;3.05;2.38;;;44.00;19.10;;;;;;5135825;27;20587;-71
2022/08/09 11:17:57;;;;;;;2.13;1.92;;;44.40;19.00;;;;;;5135893;27;20214;-72
2022/08/09 11:20:46;;;;;;;7.65;2.72;;;44.90;18.30;;;;;;5136049;27;20192;-72
2022/08/09 11:23:13;;;;;;;8.50;3.30;;;45.20;17.70;;;;;;5135695;27;20638;-72
2022/08/09 11:25:45;;;;;;;3.13;2.42;;;45.50;17.30;;;;;;5135596;27;20204;-72
2022/08/09 11:28:41;;;;;;;3.15;2.30;;;45.70;17.40;;;;;;5135893;27;20204;-73
2022/08/09 11:31:44;;;;;;;3.88;2.10;;;46.00;16.80;;;;;;5135836;27;20191;-72
2022/08/09 11:34:32;;;;;;;2.70;2.25;;;46.10;16.80;;;;;;5135884;27;20242;-72
2022/08/09 11:37:00;;;;;;;4.57;2.20;;;46.40;16.60;;;;;;5135413;27;20180;-73
2022/08/09 11:39:27;;;;;;;2.92;2.30;;;46.60;16.20;;;;;;5135638;27;20241;-73
2022/08/09 11:41:54;;;;;;;4.00;2.30;;;46.90;16.00;;;;;;5135559;27;20214;-71
2022/08/09 11:44:41;;;;;;;3.70;2.40;;;47.10;16.10;;;;;;5135135;27;20591;-71
2022/08/09 11:47:07;;;;;;;2.38;1.90;;;47.30;15.90;;;;;;5135032;27;20204;-71
2022/08/09 11:49:58;;;;;;;4.32;2.10;;;47.40;15.60;;;;;;5135247;27;20232;-71
2022/08/09 11:52:26;;;;;;;3.58;2.33;;;47.70;15.40;;;;;;5135070;27;20180;-70
2022/08/09 11:55:31;;;;;;;2.78;1.92;;;47.90;15.10;;;;;;5135260;27;20314;-71
2022/08/09 11:57:59;;;;;;;2.72;2.03;;;48.10;15.10;;;;;;5135249;27;20604;-72
2022/08/09 12:00:27;;;;;;;3.17;2.00;;;48.30;14.80;;;;;;5135115;27;20204;-72
2022/08/09 12:02:54;;;;;;;5.22;2.30;;;48.40;14.30;;;;;;5134885;27;20738;-72
2022/08/09 12:05:22;;;;;;;3.88;1.90;;;48.50;14.50;;;;;;5135030;27;20242;-71
2022/08/09 12:07:49;;;;;;;2.25;2.05;;;48.80;14.40;;;;;;5134651;27;20211;-71
2022/08/09 12:10:16;;;;;;;2.65;2.10;;;49.00;14.30;;;;;;5135058;27;20202;-71
2022/08/09 12:12:47;;;;;;;2.53;1.80;;;49.20;13.90;;;;;;5134932;27;20257;-71
2022/08/09 12:15:32;;;;;;;2.80;2.40;;;49.30;13.90;;;;;;5134855;27;20323;-71
2022/08/09 12:17:58;;;;;;;2.13;1.90;;;49.40;13.70;;;;;;5134467;27;20703;-71
2022/08/09 12:20:29;;;;;;;3.38;2.20;;;49.50;13.60;;;;;;5134815;27;20287;-71
2022/08/09 12:22:58;;;;;;;5.22;2.17;;;49.70;13.50;;;;;;5134647;27;20195;-71
2022/08/09 12:25:27;;;;;;;2.15;1.80;;;50.00;13.50;;;;;;5134400;27;20617;-71
2022/08/09 12:28:08;;;;;;;2.55;1.92;;;50.10;13.30;;;;;;5134409;27;20681;-71
2022/08/09 12:30:35;;;;;;;3.67;2.05;;;50.50;13.00;;;;;;5134896;27;20184;-71
2022/08/09 12:33:03;;;;;;;2.60;1.90;;;50.70;12.90;;;;;;5134794;27;20195;-71
2022/08/09 12:35:31;;;;;;;2.08;1.83;;;50.90;12.10;;;;;;5134620;27;20268;-71
2022/08/09 12:37:58;;;;;;;6.60;2.35;;;51.10;12.50;;;;;;5134608;27;20191;-72
2022/08/09 12:40:27;;;;;;;3.45;2.15;;;50.90;12.40;;;;;;5134315;27;20673;-72
2022/08/09 12:42:54;;;;;;;3.05;2.20;;;50.90;12.40;;;;;;5134578;28;20188;-71
2022/08/09 12:45:22;;;;;;;3.70;1.85;;;50.90;12.40;;;;;;5134539;28;20566;-71
2022/08/09 12:47:52;;;;;;;1.90;1.80;;;51.00;12.30;;;;;;5134510;28;20196;-72
2022/08/09 12:50:19;;;;;;;3.88;2.17;;;51.30;12.20;;;;;;5134651;28;20192;-72
2022/08/09 12:52:48;;;;;;;3.42;2.20;;;51.40;11.80;;;;;;5134616;28;20290;-72
2022/08/09 12:55:25;;;;;;;2.97;1.90;;;51.50;11.80;;;;;;5134507;28;20220;-72
2022/08/09 12:57:52;;;;;;;2.30;1.83;;;51.60;11.70;;;;;;5134603;28;20594;-72